createdAt,value
2019-05-30T00:00:07.755Z,8.60
2019-05-30T00:02:24.558Z,8.40
2019-05-30T00:04:52.167Z,8.30
2019-05-30T00:07:19.757Z,8.20
2019-05-30T00:09:47.336Z,8.10
2019-05-30T00:12:14.916Z,8.00
2019-05-30T00:14:42.483Z,7.90
2019-05-30T00:17:10.062Z,7.80
2019-05-30T00:19:37.620Z,7.80
2019-05-30T00:22:24.797Z,7.90
2019-05-30T00:24:52.338Z,7.60
2019-05-30T00:27:19.903Z,8.00
2019-05-30T00:29:47.518Z,7.90
2019-05-30T00:32:15.076Z,7.80
2019-05-30T00:34:42.668Z,7.70
2019-05-30T00:37:10.435Z,7.70
2019-05-30T00:39:38.000Z,7.60
2019-05-30T00:42:06.190Z,7.60
2019-05-30T00:44:33.967Z,7.60
2019-05-30T00:47:02.432Z,7.50
2019-05-30T00:49:30.219Z,7.40
2019-05-30T00:51:58.323Z,7.30
2019-05-30T00:54:26.048Z,7.30
2019-05-30T00:56:53.618Z,7.20
2019-05-30T00:59:21.218Z,7.20
2019-05-30T01:01:48.788Z,7.20
2019-05-30T01:04:16.345Z,7.30
2019-05-30T01:06:43.948Z,7.20
2019-05-30T01:09:11.567Z,7.20
2019-05-30T01:11:39.144Z,7.20
2019-05-30T01:14:07.504Z,7.20
2019-05-30T01:16:35.229Z,7.10
2019-05-30T01:19:03.194Z,7.10
2019-05-30T01:21:30.863Z,7.10
2019-05-30T01:23:59.195Z,7.10
2019-05-30T01:26:27.005Z,7.00
2019-05-30T01:28:54.749Z,6.90
2019-05-30T01:31:22.328Z,6.90
2019-05-30T01:33:49.887Z,6.90
2019-05-30T01:36:17.639Z,6.90
2019-05-30T01:38:45.177Z,6.80
2019-05-30T01:41:12.747Z,6.80
2019-05-30T01:43:40.330Z,7.00
2019-05-30T01:46:08.376Z,7.10
2019-05-30T01:48:36.066Z,7.10
2019-05-30T01:51:04.587Z,7.00
2019-05-30T01:53:32.178Z,7.00
2019-05-30T01:56:00.646Z,6.90
2019-05-30T01:58:28.408Z,6.90
2019-05-30T02:00:56.024Z,6.90
2019-05-30T02:03:23.620Z,6.80
2019-05-30T02:05:51.358Z,6.90
2019-05-30T02:08:18.914Z,6.90
2019-05-30T02:10:46.474Z,6.80
2019-05-30T02:13:14.369Z,6.80
2019-05-30T02:15:41.879Z,6.80
2019-05-30T02:18:10.014Z,6.70
2019-05-30T02:20:37.920Z,6.70
2019-05-30T02:23:07.576Z,6.60
2019-05-30T02:25:35.039Z,6.70
2019-05-30T02:28:02.604Z,6.70
2019-05-30T02:30:30.141Z,6.70
2019-05-30T02:32:57.715Z,6.70
2019-05-30T02:35:25.261Z,6.60
2019-05-30T02:37:52.851Z,6.50
2019-05-30T02:40:20.592Z,6.50
2019-05-30T02:42:48.142Z,6.50
2019-05-30T02:45:15.753Z,6.40
2019-05-30T02:47:43.306Z,6.40
2019-05-30T02:50:13.782Z,6.30
2019-05-30T02:52:40.625Z,6.20
2019-05-30T02:55:11.008Z,6.10
2019-05-30T02:57:38.163Z,6.00
2019-05-30T03:00:08.238Z,6.00
2019-05-30T03:02:35.539Z,5.90
2019-05-30T03:05:04.149Z,5.80
2019-05-30T03:07:32.462Z,5.70
2019-05-30T03:10:02.171Z,5.70
2019-05-30T03:12:29.383Z,5.70
2019-05-30T03:14:57.110Z,5.60
2019-05-30T03:17:24.659Z,5.60
2019-05-30T03:19:52.233Z,5.60
2019-05-30T03:22:19.827Z,5.70
2019-05-30T03:24:47.352Z,5.70
2019-05-30T03:27:14.918Z,5.70
2019-05-30T03:30:05.237Z,5.70
2019-05-30T03:33:02.024Z,5.40
2019-05-30T03:35:00.659Z,5.60
2019-05-30T03:37:30.268Z,5.50
2019-05-30T03:39:57.727Z,5.50
2019-05-30T03:42:25.331Z,5.60
2019-05-30T03:44:52.894Z,5.60
2019-05-30T03:47:22.169Z,5.70
2019-05-30T03:49:50.942Z,5.60
2019-05-30T03:52:19.196Z,5.60
2019-05-30T03:54:48.474Z,5.50
2019-05-30T03:57:22.855Z,5.50
2019-05-30T03:59:56.320Z,5.50
2019-05-30T04:02:56.360Z,5.60
2019-05-30T04:05:16.116Z,5.60
2019-05-30T04:07:48.420Z,5.70
2019-05-30T04:10:19.815Z,5.80
2019-05-30T04:13:23.314Z,5.80
2019-05-30T04:15:50.894Z,5.90
2019-05-30T04:18:19.572Z,6.10
2019-05-30T04:20:47.313Z,6.20
2019-05-30T04:23:15.380Z,6.50
2019-05-30T04:25:44.245Z,6.70
2019-05-30T04:28:12.085Z,6.90
2019-05-30T04:30:40.206Z,7.10
2019-05-30T04:33:23.775Z,7.20
2019-05-30T04:35:37.212Z,7.30
2019-05-30T04:38:04.879Z,7.40
2019-05-30T04:40:32.411Z,7.50
2019-05-30T04:42:59.977Z,7.60
2019-05-30T04:45:28.354Z,7.70
2019-05-30T04:47:56.357Z,7.70
2019-05-30T04:50:23.906Z,7.80
2019-05-30T04:52:51.461Z,7.80
2019-05-30T04:55:21.058Z,7.90
2019-05-30T04:57:48.422Z,8.00
2019-05-30T05:00:17.114Z,8.10
2019-05-30T05:02:44.879Z,8.10
2019-05-30T05:05:13.358Z,8.20
2019-05-30T05:07:41.824Z,8.20
2019-05-30T05:10:09.701Z,8.30
2019-05-30T05:12:37.319Z,8.30
2019-05-30T05:15:05.379Z,8.40
2019-05-30T05:17:32.931Z,8.40
2019-05-30T05:20:00.672Z,8.50
2019-05-30T05:22:28.221Z,8.50
2019-05-30T05:24:55.818Z,8.60
2019-05-30T05:27:24.029Z,8.70
2019-05-30T05:29:51.711Z,8.70
2019-05-30T05:32:20.390Z,8.70
2019-05-30T05:34:48.133Z,8.80
2019-05-30T05:37:16.956Z,8.80
2019-05-30T05:39:44.684Z,8.90
2019-05-30T05:42:12.229Z,8.90
2019-05-30T05:44:39.781Z,9.00
2019-05-30T05:47:07.383Z,9.10
2019-05-30T05:49:34.931Z,9.20
2019-05-30T05:52:02.495Z,9.30
2019-05-30T05:54:30.068Z,9.30
2019-05-30T05:56:57.620Z,9.40
2019-05-30T05:59:25.257Z,9.60
2019-05-30T06:01:52.991Z,9.80
2019-05-30T06:04:21.131Z,9.90
2019-05-30T06:06:48.813Z,10.00
2019-05-30T06:09:16.533Z,10.10
2019-05-30T06:11:44.046Z,10.30
2019-05-30T06:14:11.608Z,10.70
2019-05-30T06:16:39.177Z,11.50
2019-05-30T06:19:06.769Z,12.40
2019-05-30T06:21:34.316Z,13.20
2019-05-30T06:24:01.800Z,14.10
2019-05-30T06:26:29.447Z,14.80
2019-05-30T06:28:57.007Z,15.70
2019-05-30T06:31:24.568Z,16.60
2019-05-30T06:33:52.164Z,17.30
2019-05-30T06:36:20.862Z,17.80
2019-05-30T06:38:48.620Z,18.40
2019-05-30T06:41:16.215Z,18.90
2019-05-30T06:43:43.966Z,19.10
2019-05-30T06:46:11.535Z,19.70
2019-05-30T06:48:39.088Z,19.80
2019-05-30T06:51:06.667Z,20.10
2019-05-30T06:53:34.322Z,20.60
2019-05-30T06:56:01.928Z,20.70
2019-05-30T06:58:46.430Z,20.60
2019-05-30T07:00:58.917Z,20.60
2019-05-30T07:03:26.563Z,21.00
2019-05-30T07:05:54.605Z,21.20
2019-05-30T07:08:22.724Z,21.80
2019-05-30T07:10:50.349Z,21.80
2019-05-30T07:13:17.888Z,22.00
2019-05-30T07:15:45.434Z,22.30
2019-05-30T07:18:13.219Z,22.30
2019-05-30T07:20:40.805Z,22.40
2019-05-30T07:23:08.339Z,22.30
2019-05-30T07:25:35.926Z,22.30
2019-05-30T07:28:03.829Z,22.70
2019-05-30T07:30:32.061Z,22.90
2019-05-30T07:32:59.703Z,23.20
2019-05-30T07:35:27.962Z,22.90
2019-05-30T07:37:55.701Z,22.20
2019-05-30T07:40:24.500Z,22.10
2019-05-30T07:42:52.162Z,22.40
2019-05-30T07:45:20.014Z,22.20
2019-05-30T07:47:47.584Z,22.40
2019-05-30T07:50:15.247Z,22.40
2019-05-30T07:52:43.010Z,22.40
2019-05-30T07:55:10.873Z,22.20
2019-05-30T07:57:40.748Z,22.40
2019-05-30T08:00:08.560Z,22.70
2019-05-30T08:02:36.129Z,22.50
2019-05-30T08:05:05.229Z,22.70
2019-05-30T08:07:32.790Z,22.60
2019-05-30T08:10:00.384Z,22.60
2019-05-30T08:12:28.185Z,23.00
2019-05-30T08:14:55.704Z,23.20
2019-05-30T08:17:23.251Z,23.60
2019-05-30T08:19:51.732Z,23.90
2019-05-30T08:22:19.300Z,23.40
2019-05-30T08:24:46.871Z,22.80
2019-05-30T08:27:14.596Z,22.20
2019-05-30T08:29:42.165Z,22.20
2019-05-30T08:32:09.752Z,22.70
2019-05-30T08:34:38.744Z,22.30
2019-05-30T08:37:06.500Z,22.50
2019-05-30T08:39:35.153Z,23.20
2019-05-30T08:42:02.967Z,23.80
2019-05-30T08:44:31.561Z,24.30
2019-05-30T08:46:59.409Z,24.60
2019-05-30T08:49:26.989Z,24.40
2019-05-30T08:51:54.555Z,23.60
2019-05-30T08:54:22.525Z,23.80
2019-05-30T08:56:50.066Z,24.30
2019-05-30T08:59:17.617Z,24.30
2019-05-30T09:01:46.421Z,24.00
2019-05-30T09:04:14.623Z,24.00
2019-05-30T09:06:42.230Z,24.00
2019-05-30T09:09:09.839Z,23.30
2019-05-30T09:11:38.938Z,23.90
2019-05-30T09:14:06.940Z,24.40
2019-05-30T09:16:34.544Z,24.90
2019-05-30T09:19:02.110Z,24.10
2019-05-30T09:21:29.717Z,24.10
2019-05-30T09:24:01.142Z,24.60
2019-05-30T09:26:26.653Z,24.50
2019-05-30T09:28:54.266Z,24.20
2019-05-30T09:31:21.995Z,23.90
2019-05-30T09:33:49.538Z,24.50
2019-05-30T09:36:17.098Z,25.00
2019-05-30T09:38:45.474Z,24.90
2019-05-30T09:41:13.351Z,23.70
2019-05-30T09:43:41.597Z,22.70
2019-05-30T09:46:10.308Z,22.20
2019-05-30T09:48:37.958Z,21.40
2019-05-30T09:51:05.563Z,21.40
2019-05-30T09:53:33.194Z,22.20
2019-05-30T09:56:00.804Z,22.90
2019-05-30T09:58:28.375Z,23.30
2019-05-30T10:00:55.913Z,24.00
2019-05-30T10:03:23.505Z,23.10
2019-05-30T10:05:51.113Z,22.00
2019-05-30T10:08:18.668Z,20.70
2019-05-30T10:10:47.713Z,20.80
2019-05-30T10:13:15.497Z,21.50
2019-05-30T10:15:44.044Z,21.30
2019-05-30T10:18:12.523Z,20.60
2019-05-30T10:20:40.090Z,21.10
2019-05-30T10:23:07.828Z,22.10
2019-05-30T10:25:35.366Z,22.70
2019-05-30T10:28:03.028Z,23.10
2019-05-30T10:30:30.949Z,23.60
2019-05-30T10:32:58.503Z,24.00
2019-05-30T10:35:29.625Z,24.00
2019-05-30T10:37:55.462Z,24.50
2019-05-30T10:40:23.180Z,25.10
2019-05-30T10:42:51.299Z,25.30
2019-05-30T10:45:20.919Z,25.40
2019-05-30T10:47:49.404Z,26.10
2019-05-30T10:50:17.192Z,26.40
2019-05-30T10:52:45.341Z,25.40
2019-05-30T10:55:13.849Z,24.00
2019-05-30T10:57:41.741Z,22.90
2019-05-30T11:00:11.133Z,22.10
2019-05-30T11:02:39.018Z,21.90
2019-05-30T11:05:07.002Z,22.00
2019-05-30T11:08:05.536Z,22.10
2019-05-30T11:10:37.552Z,22.60
2019-05-30T11:13:06.784Z,23.00
2019-05-30T11:15:34.377Z,23.70
2019-05-30T11:18:02.317Z,23.90
2019-05-30T11:20:29.878Z,23.80
2019-05-30T11:22:58.478Z,23.90
2019-05-30T11:25:26.145Z,24.40
2019-05-30T11:27:54.793Z,24.90
2019-05-30T11:30:22.601Z,25.30
2019-05-30T11:32:50.920Z,25.40
2019-05-30T11:35:18.604Z,25.50
2019-05-30T11:37:46.182Z,25.40
2019-05-30T11:40:13.907Z,26.00
2019-05-30T11:42:41.450Z,25.70
2019-05-30T11:45:09.362Z,24.50
2019-05-30T11:47:36.958Z,24.20
2019-05-30T11:50:04.521Z,24.10
2019-05-30T11:52:32.069Z,24.30
2019-05-30T11:55:00.303Z,24.50
2019-05-30T11:57:28.026Z,24.60
2019-05-30T11:59:56.212Z,24.90
2019-05-30T12:02:24.228Z,24.80
2019-05-30T12:04:52.544Z,25.10
2019-05-30T12:07:35.427Z,24.70
2019-05-30T12:09:50.704Z,25.00
2019-05-30T12:12:18.440Z,25.20
2019-05-30T12:14:46.096Z,25.20
2019-05-30T12:17:13.660Z,25.30
2019-05-30T12:19:41.278Z,25.20
2019-05-30T12:22:08.869Z,25.10
2019-05-30T12:24:36.442Z,25.20
2019-05-30T12:27:04.476Z,25.60
2019-05-30T12:29:32.076Z,25.50
2019-05-30T14:12:16.330Z,22.20
2019-05-30T14:14:43.899Z,22.50
2019-05-30T14:17:13.627Z,23.00
2019-05-30T14:19:40.983Z,23.10
2019-05-30T14:22:09.382Z,23.20
2019-05-30T14:24:37.025Z,23.40
2019-05-30T14:27:05.452Z,23.60
2019-05-30T14:29:33.119Z,23.40
2019-05-30T14:32:02.162Z,23.50
2019-05-30T14:34:30.168Z,23.40
2019-05-30T14:36:57.731Z,23.60
2019-05-30T14:39:25.339Z,23.20
2019-05-30T14:41:53.268Z,23.00
2019-05-30T14:44:20.855Z,23.00
2019-05-30T14:46:48.420Z,22.80
2019-05-30T14:49:17.290Z,22.80
2019-05-30T14:51:44.908Z,22.70
2019-05-30T14:54:13.182Z,22.70
2019-05-30T14:56:41.458Z,22.70
2019-05-30T14:59:09.056Z,23.00
2019-05-30T15:01:36.651Z,23.20
2019-05-30T15:04:05.163Z,23.30
2019-05-30T15:06:33.054Z,23.20
2019-05-30T15:09:14.355Z,22.90
2019-05-30T15:11:30.069Z,22.60
2019-05-30T15:13:57.947Z,22.20
2019-05-30T15:16:25.592Z,22.30
2019-05-30T15:18:53.220Z,22.30
2019-05-30T15:21:20.839Z,22.50
2019-05-30T15:23:48.406Z,22.50
2019-05-30T15:26:16.353Z,22.40
2019-05-30T15:28:43.884Z,22.50
2019-05-30T15:31:12.427Z,22.60
2019-05-30T15:33:40.114Z,22.80
2019-05-30T15:36:08.547Z,22.80
2019-05-30T15:38:36.165Z,22.70
2019-05-30T15:41:03.746Z,22.40
2019-05-30T15:43:31.331Z,22.20
2019-05-30T15:45:59.108Z,22.10
2019-05-30T15:48:28.610Z,21.90
2019-05-30T15:50:56.065Z,21.70
2019-05-30T15:53:25.368Z,21.70
2019-05-30T15:55:52.970Z,21.70
2019-05-30T15:58:20.728Z,21.60
2019-05-30T16:00:51.418Z,21.40
2019-05-30T16:03:19.015Z,21.40
2019-05-30T16:05:46.857Z,21.40
2019-05-30T16:08:14.772Z,21.50
2019-05-30T16:10:42.430Z,21.60
2019-05-30T16:13:11.349Z,21.80
2019-05-30T16:15:39.319Z,22.00
2019-05-30T16:18:07.024Z,22.20
2019-05-30T16:20:38.949Z,22.20
2019-05-30T16:23:06.723Z,22.30
2019-05-30T16:25:34.423Z,22.40
2019-05-30T16:28:02.184Z,22.40
2019-05-30T16:30:30.112Z,22.40
2019-05-30T16:32:57.807Z,22.40
2019-05-30T16:35:26.505Z,22.30
2019-05-30T16:37:54.249Z,22.00
2019-05-30T16:40:22.412Z,21.90
2019-05-30T16:42:50.343Z,21.70
2019-05-30T16:45:21.605Z,21.50
2019-05-30T16:47:50.339Z,21.30
2019-05-30T16:50:23.535Z,21.20
2019-05-30T16:52:51.264Z,21.20
2019-05-30T16:55:21.385Z,21.30
2019-05-30T16:57:49.129Z,21.20
2019-05-30T17:00:20.257Z,21.20
2019-05-30T17:02:47.994Z,21.40
2019-05-30T17:05:17.980Z,21.40
2019-05-30T17:07:48.472Z,21.40
2019-05-30T17:10:23.456Z,21.40
2019-05-30T17:12:45.201Z,21.60
2019-05-30T17:15:12.897Z,21.80
2019-05-30T17:17:40.482Z,21.90
2019-05-30T17:20:09.073Z,22.10
2019-05-30T17:22:36.645Z,22.30
2019-05-30T17:25:06.822Z,22.40
2019-05-30T17:27:35.781Z,22.50
2019-05-30T17:30:07.879Z,22.50
2019-05-30T17:32:38.482Z,22.30
2019-05-30T17:35:06.437Z,22.20
2019-05-30T17:37:34.452Z,21.90
2019-05-30T17:40:02.127Z,21.80
2019-05-30T17:42:29.912Z,20.40
2019-05-30T17:44:58.081Z,21.50
2019-05-30T17:47:25.681Z,21.30
2019-05-30T17:49:53.328Z,21.10
2019-05-30T17:52:21.746Z,20.90
2019-05-30T17:54:49.540Z,20.80
2019-05-30T17:57:18.125Z,20.80
2019-05-30T17:59:45.758Z,20.80
2019-05-30T18:02:13.495Z,20.80
2019-05-30T18:04:41.140Z,20.80
2019-05-30T18:07:08.807Z,20.90
2019-05-30T18:09:36.407Z,20.80
2019-05-30T18:12:04.238Z,20.70
2019-05-30T18:14:31.933Z,20.60
2019-05-30T18:16:59.738Z,20.50
2019-05-30T18:19:27.496Z,20.60
2019-05-30T18:21:56.473Z,20.10
2019-05-30T18:24:24.117Z,19.90
2019-05-30T18:26:51.890Z,19.50
2019-05-30T18:29:19.810Z,19.30
2019-05-30T18:31:49.458Z,19.00
2019-05-30T18:34:18.196Z,18.70
2019-05-30T18:36:46.174Z,18.50
2019-05-30T18:39:13.981Z,18.30
2019-05-30T18:42:01.318Z,18.10
2019-05-30T18:44:32.375Z,17.80
2019-05-30T18:46:58.731Z,17.60
2019-05-30T18:49:27.151Z,17.30
2019-05-30T18:51:54.964Z,17.10
2019-05-30T18:54:22.612Z,16.90
2019-05-30T18:56:50.318Z,16.70
2019-05-30T18:59:18.046Z,16.40
2019-05-30T19:01:45.818Z,16.20
2019-05-30T19:04:13.841Z,16.10
2019-05-30T19:06:41.615Z,15.90
2019-05-30T19:09:09.380Z,15.70
2019-05-30T19:11:38.352Z,15.50
2019-05-30T19:14:06.279Z,15.30
2019-05-30T19:16:34.609Z,15.10
2019-05-30T19:19:03.767Z,14.90
2019-05-30T19:21:32.180Z,14.70
2019-05-30T19:23:59.968Z,14.60
2019-05-30T19:26:28.305Z,14.40
2019-05-30T19:28:56.080Z,14.20
2019-05-30T19:31:23.787Z,14.10
2019-05-30T19:33:52.692Z,13.90
2019-05-30T19:36:20.560Z,13.90
2019-05-30T19:38:48.350Z,13.80
2019-05-30T19:41:16.174Z,13.70
2019-05-30T19:43:43.910Z,13.60
2019-05-30T19:46:13.290Z,13.50
2019-05-30T19:48:40.943Z,13.50
2019-05-30T19:51:08.735Z,13.40
2019-05-30T19:53:37.005Z,13.30
2019-05-30T19:56:04.836Z,13.20
2019-05-30T19:58:33.406Z,13.10
2019-05-30T20:01:01.063Z,13.10
2019-05-30T20:03:38.350Z,12.90
2019-05-30T20:05:58.436Z,12.80
2019-05-30T20:08:26.227Z,12.80
2019-05-30T20:10:53.757Z,12.70
2019-05-30T20:13:22.688Z,12.70
2019-05-30T20:15:50.402Z,12.70
2019-05-30T20:18:18.170Z,12.70
2019-05-30T20:20:56.499Z,12.80
2019-05-30T20:23:15.305Z,12.80
2019-05-30T20:25:45.824Z,12.80
2019-05-30T20:28:13.168Z,12.90
2019-05-30T20:30:41.208Z,12.90
2019-05-30T20:33:09.241Z,13.00
2019-05-30T20:35:38.948Z,13.10
2019-05-30T20:38:08.944Z,13.10
2019-05-30T20:40:36.987Z,13.10
2019-05-30T20:43:04.600Z,13.30
2019-05-30T20:45:32.198Z,13.10
2019-05-30T20:47:59.770Z,13.00
2019-05-30T20:50:27.360Z,13.00
2019-05-30T20:52:54.973Z,12.90
2019-05-30T20:55:22.554Z,12.90
2019-05-30T20:57:50.337Z,12.90
2019-05-30T21:00:18.223Z,12.90
2019-05-30T21:02:47.151Z,12.90
2019-05-30T21:05:15.065Z,12.80
2019-05-30T21:07:44.269Z,12.80
2019-05-30T21:10:13.123Z,12.70
2019-05-30T21:12:46.750Z,12.70
2019-05-30T21:15:13.603Z,12.50
2019-05-30T21:17:43.767Z,12.50
2019-05-30T21:20:12.093Z,12.50
2019-05-30T21:22:40.200Z,12.40
2019-05-30T21:25:08.052Z,12.40
2019-05-30T21:27:36.935Z,12.30
2019-05-30T21:30:04.816Z,12.20
2019-05-30T21:32:32.686Z,12.20
2019-05-30T21:35:00.483Z,12.10
2019-05-30T21:37:28.181Z,12.00
2019-05-30T21:39:56.067Z,11.90
2019-05-30T21:42:23.669Z,11.80
2019-05-30T21:44:52.792Z,11.70
2019-05-30T21:47:20.696Z,11.60
2019-05-30T21:49:49.217Z,11.60
2019-05-30T21:52:16.895Z,11.50
2019-05-30T21:54:45.746Z,11.50
2019-05-30T21:57:13.452Z,11.60
2019-05-30T21:59:42.320Z,11.60
2019-05-30T22:02:10.048Z,11.60
2019-05-30T22:04:37.634Z,11.60
2019-05-30T22:07:05.211Z,11.60
2019-05-30T22:09:32.772Z,11.70
2019-05-30T22:12:00.373Z,11.80
2019-05-30T22:14:28.134Z,11.90
2019-05-30T22:16:55.700Z,11.90
2019-05-30T22:19:23.233Z,11.90
2019-05-30T22:21:50.859Z,11.90
2019-05-30T22:24:18.430Z,11.90
2019-05-30T22:26:46.384Z,12.00
2019-05-30T22:29:14.144Z,12.00
2019-05-30T22:31:42.517Z,12.00
2019-05-30T22:34:10.241Z,12.00
2019-05-30T22:36:37.844Z,12.00
2019-05-30T22:39:08.894Z,12.00
2019-05-30T22:41:36.970Z,12.00
2019-05-30T22:44:04.587Z,12.00
2019-05-30T22:46:32.166Z,12.00
2019-05-30T22:48:59.795Z,12.00
2019-05-30T22:51:27.709Z,12.10
2019-05-30T22:53:55.375Z,12.00
2019-05-30T22:56:22.992Z,12.00
2019-05-30T22:58:51.673Z,12.00
2019-05-30T23:01:19.849Z,12.00
2019-05-30T23:03:47.459Z,12.00
2019-05-30T23:06:15.011Z,12.00
2019-05-30T23:08:42.618Z,12.00
2019-05-30T23:11:10.775Z,12.10
2019-05-30T23:13:40.737Z,12.10
2019-05-30T23:16:07.732Z,12.10
2019-05-30T23:18:35.443Z,12.10
2019-05-30T23:21:03.231Z,12.10
2019-05-30T23:23:30.954Z,12.10
2019-05-30T23:25:58.641Z,12.10
2019-05-30T23:28:26.402Z,12.10
2019-05-30T23:30:54.176Z,12.10
2019-05-30T23:33:21.811Z,12.10
2019-05-30T23:35:50.258Z,12.10
2019-05-30T23:38:18.026Z,12.20
2019-05-30T23:40:45.574Z,12.20
2019-05-30T23:43:13.403Z,12.20
2019-05-30T23:46:00.523Z,12.20
2019-05-30T23:48:28.172Z,12.10
2019-05-30T23:50:55.997Z,12.10
2019-05-30T23:53:23.905Z,12.10
2019-05-30T23:55:52.784Z,12.00
2019-05-30T23:58:20.580Z,12.00
